Time;durP1;ratioP1;P1;durP2;ratioP2;P2;SDS_P1;SDS_P2;PMS_P1;PMS_P2;Temp;Humidity;BMP_temperature;BMP_pressure;BME280_temperature;BME280_humidity;BME280_pressure;Samples;Min_cycle;Max_cycle;Signal;HPM_P1;HPM_P2
2023/08/11 00:00:25;;;;;;;11.00;8.50;;;16.40;84.90;;;;;;5094756;28;20044;-79
2023/08/11 00:02:51;;;;;;;10.18;8.82;;;16.40;84.90;;;;;;5076929;28;20055;-79
2023/08/11 00:05:17;;;;;;;10.73;9.07;;;16.30;85.00;;;;;;5077605;28;20043;-80
2023/08/11 00:07:50;;;;;;;9.85;8.85;;;16.30;85.10;;;;;;5061037;28;20097;-79
2023/08/11 00:10:20;;;;;;;10.90;7.80;;;16.20;85.10;;;;;;5077259;28;20476;-79
2023/08/11 00:12:46;;;;;;;9.48;8.55;;;16.10;85.20;;;;;;5094179;28;20117;-80
2023/08/11 00:15:12;;;;;;;11.63;8.38;;;16.00;85.30;;;;;;5077242;28;20554;-81
2023/08/11 00:17:41;;;;;;;9.80;8.82;;;16.00;85.60;;;;;;5077250;28;20123;-81
2023/08/11 00:20:08;;;;;;;10.32;8.68;;;16.00;85.50;;;;;;5093944;28;20120;-79
2023/08/11 00:22:34;;;;;;;9.88;8.65;;;16.00;85.50;;;;;;5094365;28;20399;-80
2023/08/11 00:25:00;;;;;;;10.52;8.55;;;16.00;85.50;;;;;;5060786;28;20378;-78
2023/08/11 00:27:27;;;;;;;10.32;9.23;;;15.90;85.80;;;;;;5093769;28;20698;-80
2023/08/11 00:29:54;;;;;;;9.73;8.73;;;15.90;85.70;;;;;;5060457;28;20101;-78
2023/08/11 00:32:20;;;;;;;12.48;9.05;;;15.90;85.80;;;;;;5060445;28;20050;-80
2023/08/11 00:34:47;;;;;;;10.55;9.48;;;15.80;85.80;;;;;;5076928;28;20043;-78
2023/08/11 00:37:13;;;;;;;9.40;8.48;;;15.80;85.70;;;;;;5077322;28;20059;-80
2023/08/11 00:39:39;;;;;;;10.68;8.57;;;15.70;85.70;;;;;;5093879;28;20047;-78
2023/08/11 00:42:05;;;;;;;10.77;8.75;;;15.70;85.70;;;;;;5060032;28;20472;-80
2023/08/11 00:44:32;;;;;;;12.23;8.90;;;15.70;85.80;;;;;;5060077;28;20082;-79
2023/08/11 00:46:57;;;;;;;12.40;9.18;;;15.70;85.90;;;;;;5076640;28;20488;-79
2023/08/11 00:49:23;;;;;;;9.90;7.80;;;15.60;85.80;;;;;;5093503;28;20048;-80
2023/08/11 00:51:50;;;;;;;10.27;8.00;;;15.60;86.00;;;;;;5076504;28;20040;-81
2023/08/11 00:54:17;;;;;;;9.68;7.45;;;15.60;86.20;;;;;;5076641;28;20040;-78
2023/08/11 00:56:44;;;;;;;10.13;9.07;;;15.60;86.40;;;;;;5093327;28;20044;-78
2023/08/11 00:59:15;;;;;;;11.05;9.40;;;15.70;86.30;;;;;;5093609;28;20045;-78
2023/08/11 01:01:40;;;;;;;10.90;9.10;;;15.60;86.60;;;;;;5076359;28;20591;-79
2023/08/11 01:04:07;;;;;;;10.13;9.13;;;15.60;86.60;;;;;;5059710;28;20127;-78
2023/08/11 01:06:47;;;;;;;12.00;9.30;;;15.60;86.90;;;;;;5076095;28;20154;-80
2023/08/11 01:09:37;;;;;;;12.20;9.63;;;15.60;87.10;;;;;;5093282;28;20432;-79
2023/08/11 01:12:09;;;;;;;10.73;8.35;;;15.50;87.40;;;;;;5093208;28;20126;-78
2023/08/11 01:15:00;;;;;;;9.88;8.48;;;15.60;87.00;;;;;;5076244;28;20397;-80
2023/08/11 01:17:27;;;;;;;11.52;9.57;;;15.50;86.80;;;;;;5092899;28;20036;-80
2023/08/11 01:19:53;;;;;;;11.35;10.05;;;15.50;86.80;;;;;;5075953;28;20044;-79
2023/08/11 01:22:23;;;;;;;14.10;10.32;;;15.50;87.10;;;;;;5092942;28;20040;-80
2023/08/11 01:24:50;;;;;;;11.05;9.07;;;15.50;87.20;;;;;;5092737;28;20053;-79
2023/08/11 01:27:16;;;;;;;12.98;9.57;;;15.40;86.90;;;;;;5075838;28;20071;-80
2023/08/11 01:29:42;;;;;;;11.73;10.52;;;15.40;86.90;;;;;;5092383;28;20314;-78
2023/08/11 01:32:08;;;;;;;12.07;10.43;;;15.40;87.10;;;;;;5092814;28;20048;-79
2023/08/11 01:34:35;;;;;;;13.18;10.23;;;15.40;87.10;;;;;;5059397;28;20382;-79
2023/08/11 01:37:00;;;;;;;13.88;11.35;;;15.40;87.50;;;;;;5059253;28;20073;-78
2023/08/11 01:39:27;;;;;;;12.80;10.73;;;15.40;87.40;;;;;;5092763;28;20123;-79
2023/08/11 01:41:54;;;;;;;13.98;10.98;;;15.40;87.50;;;;;;5092447;28;20484;-80
2023/08/11 01:44:20;;;;;;;14.30;12.77;;;15.30;87.60;;;;;;5092407;28;20561;-79
2023/08/11 01:46:47;;;;;;;13.68;10.88;;;15.30;87.80;;;;;;5092371;28;20048;-80
2023/08/11 01:49:13;;;;;;;15.05;12.00;;;15.30;88.10;;;;;;5075430;28;20468;-79
2023/08/11 01:51:39;;;;;;;13.70;11.90;;;15.30;87.80;;;;;;5058758;28;20040;-79
2023/08/11 01:54:08;;;;;;;13.68;11.98;;;15.20;87.80;;;;;;5075556;28;20511;-81
2023/08/11 01:56:37;;;;;;;16.58;12.65;;;15.20;87.90;;;;;;5075641;28;20040;-79
2023/08/11 01:59:04;;;;;;;15.05;13.13;;;15.20;87.90;;;;;;5092410;28;20044;-79
2023/08/11 02:01:30;;;;;;;17.30;13.05;;;15.10;88.10;;;;;;5092373;28;20148;-80
2023/08/11 02:03:57;;;;;;;15.77;14.13;;;15.20;88.00;;;;;;5075276;28;20044;-79
2023/08/11 02:06:23;;;;;;;16.02;13.20;;;15.10;88.00;;;;;;5075137;28;20039;-79
2023/08/11 02:08:49;;;;;;;15.95;14.15;;;15.10;88.10;;;;;;5058808;28;20040;-79
2023/08/11 02:11:14;;;;;;;14.98;13.48;;;15.10;88.20;;;;;;5058462;28;20043;-78
2023/08/11 02:13:40;;;;;;;15.63;13.93;;;15.10;88.10;;;;;;5075378;28;20047;-79
2023/08/11 02:16:06;;;;;;;18.83;14.38;;;15.00;88.10;;;;;;5075129;28;20531;-79
2023/08/11 02:18:32;;;;;;;16.65;14.00;;;15.00;88.00;;;;;;5075260;28;20097;-79
2023/08/11 02:20:57;;;;;;;20.00;13.95;;;15.00;88.20;;;;;;5075223;28;20055;-78
2023/08/11 02:23:23;;;;;;;15.93;14.23;;;14.90;88.30;;;;;;5091835;28;20403;-80
2023/08/11 02:25:49;;;;;;;18.58;14.38;;;14.90;88.20;;;;;;5074828;28;20040;-79
2023/08/11 02:28:15;;;;;;;18.10;16.27;;;14.80;88.20;;;;;;5091793;28;20090;-79
2023/08/11 02:30:41;;;;;;;17.23;15.43;;;14.90;88.40;;;;;;5091547;28;20079;-79
2023/08/11 02:33:07;;;;;;;18.40;16.50;;;14.90;88.40;;;;;;5092008;28;20076;-79
2023/08/11 02:35:33;;;;;;;16.10;14.35;;;14.90;88.50;;;;;;5091953;28;20503;-80
2023/08/11 02:37:59;;;;;;;17.70;15.65;;;14.90;88.70;;;;;;5075323;28;20396;-78
2023/08/11 02:40:26;;;;;;;19.40;16.85;;;14.90;88.90;;;;;;5041544;28;20044;-80
2023/08/11 02:42:56;;;;;;;21.63;17.88;;;14.90;89.00;;;;;;5075104;28;20412;-79
2023/08/11 02:45:23;;;;;;;20.30;18.25;;;14.90;88.90;;;;;;5091547;28;20048;-80
2023/08/11 02:47:50;;;;;;;16.20;13.70;;;14.90;89.30;;;;;;5075057;28;20036;-80
2023/08/11 02:50:17;;;;;;;20.77;18.52;;;14.90;89.30;;;;;;5091650;28;20036;-80
2023/08/11 02:52:43;;;;;;;22.63;20.27;;;14.90;89.40;;;;;;5075003;28;20036;-78
2023/08/11 02:55:11;;;;;;;21.05;18.85;;;14.90;89.80;;;;;;5091491;28;20484;-81
2023/08/11 02:57:37;;;;;;;20.55;18.48;;;14.90;89.70;;;;;;5074996;28;20048;-78
2023/08/11 03:00:12;;;;;;;22.20;19.83;;;14.90;89.50;;;;;;5091421;28;20424;-80
2023/08/11 03:02:38;;;;;;;23.58;20.02;;;14.90;89.40;;;;;;5074988;28;20044;-79
2023/08/11 03:05:06;;;;;;;27.48;20.20;;;14.90;89.60;;;;;;5057850;28;20040;-80
2023/08/11 03:07:34;;;;;;;23.42;20.98;;;14.90;89.60;;;;;;5058627;28;20071;-81
2023/08/11 03:10:00;;;;;;;21.23;19.00;;;14.90;89.30;;;;;;5057834;28;20043;-78
2023/08/11 03:12:28;;;;;;;20.92;18.73;;;14.90;89.30;;;;;;5074623;28;20047;-77
2023/08/11 03:14:54;;;;;;;21.50;18.92;;;14.90;89.10;;;;;;5074906;28;20043;-80
2023/08/11 03:17:20;;;;;;;25.20;20.15;;;14.80;89.20;;;;;;5074592;28;20032;-80
2023/08/11 03:19:45;;;;;;;23.10;20.70;;;14.80;89.20;;;;;;5091360;28;20078;-79
2023/08/11 03:22:11;;;;;;;22.63;20.20;;;14.70;89.30;;;;;;5091456;28;20047;-79
2023/08/11 03:24:37;;;;;;;23.42;21.08;;;14.80;89.50;;;;;;5091543;28;20459;-80
2023/08/11 03:27:02;;;;;;;23.48;20.83;;;14.70;89.60;;;;;;5074471;28;20135;-79
2023/08/11 03:29:28;;;;;;;22.73;20.38;;;14.80;89.60;;;;;;5074250;28;20039;-79
2023/08/11 03:31:54;;;;;;;24.25;19.77;;;14.70;89.50;;;;;;5041164;28;20052;-80
2023/08/11 03:34:20;;;;;;;23.38;20.88;;;14.70;89.50;;;;;;5091487;28;20051;-79
2023/08/11 03:36:46;;;;;;;21.73;19.52;;;14.70;89.70;;;;;;5075301;28;20046;-78
2023/08/11 03:39:12;;;;;;;23.85;21.23;;;14.70;89.60;;;;;;5078081;28;20492;-79
2023/08/11 03:41:37;;;;;;;22.15;19.85;;;14.80;89.70;;;;;;5094758;28;20047;-79
2023/08/11 03:44:03;;;;;;;23.85;21.45;;;14.80;89.80;;;;;;5094750;28;20074;-79
2023/08/11 03:46:30;;;;;;;20.73;18.58;;;14.80;90.10;;;;;;5094744;28;20089;-80
2023/08/11 03:48:57;;;;;;;21.23;19.20;;;14.80;90.10;;;;;;5077958;28;20040;-81
2023/08/11 03:51:22;;;;;;;20.83;18.83;;;14.80;90.30;;;;;;5077921;28;20051;-79
2023/08/11 03:53:48;;;;;;;22.13;19.83;;;14.80;90.00;;;;;;5077732;28;20036;-79
2023/08/11 03:56:14;;;;;;;21.38;19.23;;;14.80;90.00;;;;;;5061000;28;20063;-78
2023/08/11 03:58:39;;;;;;;25.17;22.48;;;14.80;89.90;;;;;;5077555;28;20044;-81
2023/08/11 04:01:05;;;;;;;22.98;20.60;;;14.90;90.20;;;;;;5076938;28;20040;-80
2023/08/11 04:03:31;;;;;;;19.65;17.05;;;14.80;90.10;;;;;;5076927;28;20047;-78
2023/08/11 04:06:01;;;;;;;22.40;20.10;;;14.80;90.00;;;;;;5076715;28;20047;-81
2023/08/11 04:08:27;;;;;;;18.88;16.95;;;14.90;89.90;;;;;;5077050;28;20047;-78
2023/08/11 04:10:54;;;;;;;21.50;19.38;;;14.80;89.80;;;;;;5094126;28;20036;-79
2023/08/11 04:13:20;;;;;;;17.45;15.55;;;14.80;89.80;;;;;;5094179;28;20047;-78
2023/08/11 04:15:49;;;;;;;19.85;17.92;;;14.80;89.90;;;;;;5077531;28;20040;-79
2023/08/11 04:18:15;;;;;;;21.80;19.50;;;14.80;89.90;;;;;;5077236;28;20040;-80
2023/08/11 04:20:41;;;;;;;19.35;17.52;;;14.80;89.90;;;;;;5077037;28;20051;-80
2023/08/11 04:23:07;;;;;;;20.95;18.50;;;14.80;90.00;;;;;;5077393;28;20093;-80
2023/08/11 04:25:33;;;;;;;20.95;18.85;;;14.80;90.10;;;;;;5093936;28;20047;-79
2023/08/11 04:28:02;;;;;;;20.48;17.73;;;14.80;90.50;;;;;;5093873;28;20058;-80
2023/08/11 04:30:28;;;;;;;20.75;18.65;;;14.80;90.40;;;;;;5093699;28;20052;-80
2023/08/11 04:32:54;;;;;;;19.25;17.13;;;14.80;90.60;;;;;;5076901;28;20044;-79
2023/08/11 04:35:20;;;;;;;21.02;18.67;;;14.80;90.50;;;;;;5077220;28;20100;-80
2023/08/11 04:37:46;;;;;;;19.83;16.13;;;14.70;90.60;;;;;;5076896;28;20040;-79
2023/08/11 04:40:13;;;;;;;19.05;17.15;;;14.80;90.30;;;;;;5076795;28;20036;-79
2023/08/11 04:42:39;;;;;;;19.70;17.80;;;14.80;90.40;;;;;;5060424;28;20177;-79
2023/08/11 04:45:06;;;;;;;21.63;19.40;;;14.80;90.30;;;;;;5093497;28;20502;-79
2023/08/11 04:47:31;;;;;;;20.15;17.45;;;14.80;90.40;;;;;;5093445;28;20426;-79
2023/08/11 04:49:57;;;;;;;18.33;16.52;;;14.70;90.40;;;;;;5076588;28;20043;-79
2023/08/11 04:52:23;;;;;;;15.57;14.13;;;14.80;90.40;;;;;;5093407;28;20105;-79
2023/08/11 04:54:49;;;;;;;19.67;17.65;;;14.80;90.60;;;;;;5076538;28;20043;-79
2023/08/11 04:57:15;;;;;;;16.38;14.80;;;14.80;90.60;;;;;;5093255;28;20043;-81
2023/08/11 04:59:40;;;;;;;20.50;17.45;;;14.80;90.60;;;;;;5059915;28;20131;-80
2023/08/11 05:02:07;;;;;;;19.52;17.52;;;14.80;90.70;;;;;;5076345;28;20093;-79
2023/08/11 05:04:33;;;;;;;18.42;16.60;;;14.80;90.70;;;;;;5093199;28;20100;-79
2023/08/11 05:06:59;;;;;;;18.27;16.38;;;14.80;90.60;;;;;;5059938;28;20492;-79
2023/08/11 05:09:25;;;;;;;16.27;14.60;;;14.90;90.50;;;;;;5093114;28;20089;-79
2023/08/11 05:11:51;;;;;;;18.52;16.42;;;15.00;90.40;;;;;;5093216;28;20036;-79
2023/08/11 05:14:17;;;;;;;17.48;15.65;;;15.00;90.60;;;;;;5076177;28;20123;-79
2023/08/11 05:16:44;;;;;;;18.25;16.45;;;15.00;90.60;;;;;;5093302;28;20094;-80
2023/08/11 05:19:10;;;;;;;27.33;17.42;;;15.00;90.60;;;;;;5092861;28;20074;-80
2023/08/11 05:21:37;;;;;;;14.10;12.80;;;15.00;91.00;;;;;;5092769;28;20040;-80
2023/08/11 05:24:04;;;;;;;14.35;12.88;;;15.10;90.80;;;;;;5092805;28;20556;-80
2023/08/11 05:26:29;;;;;;;18.48;16.27;;;15.20;90.90;;;;;;5092836;28;20392;-80
2023/08/11 05:28:55;;;;;;;14.38;12.88;;;15.20;90.60;;;;;;5059222;28;20036;-79
2023/08/11 05:31:21;;;;;;;17.25;15.45;;;15.30;90.70;;;;;;5075401;28;20056;-80
2023/08/11 05:33:46;;;;;;;15.52;13.93;;;15.30;90.70;;;;;;5059326;28;20040;-79
2023/08/11 05:36:12;;;;;;;19.45;15.15;;;15.40;90.90;;;;;;5092609;28;20071;-79
2023/08/11 05:38:38;;;;;;;17.65;15.77;;;15.40;91.00;;;;;;5075899;28;20042;-80
2023/08/11 05:41:04;;;;;;;17.00;15.27;;;15.50;90.80;;;;;;5058972;28;20123;-79
2023/08/11 05:43:29;;;;;;;14.35;13.00;;;15.50;90.70;;;;;;5059024;28;20040;-80
2023/08/11 05:45:55;;;;;;;17.25;15.55;;;15.60;91.00;;;;;;5092409;28;20044;-79
2023/08/11 05:48:21;;;;;;;16.75;15.10;;;15.70;91.00;;;;;;5092647;28;20134;-81
2023/08/11 05:50:47;;;;;;;18.17;16.30;;;15.70;90.70;;;;;;5075692;28;20077;-80
2023/08/11 05:53:12;;;;;;;19.27;17.30;;;15.80;90.60;;;;;;5059139;28;20128;-78
2023/08/11 05:55:39;;;;;;;17.65;15.80;;;15.90;90.80;;;;;;5092544;28;20035;-79
2023/08/11 05:58:04;;;;;;;18.27;16.10;;;16.00;90.80;;;;;;5092221;28;20040;-80
2023/08/11 06:00:30;;;;;;;17.15;15.20;;;16.00;90.60;;;;;;5074880;28;20028;-80
2023/08/11 06:02:56;;;;;;;17.63;15.63;;;16.20;90.70;;;;;;5092428;28;20101;-81
2023/08/11 06:05:23;;;;;;;24.60;16.85;;;16.30;90.70;;;;;;5076035;28;20036;-79
2023/08/11 06:07:49;;;;;;;17.33;15.52;;;16.40;91.10;;;;;;5059359;28;20071;-77
2023/08/11 06:10:15;;;;;;;17.13;15.43;;;16.50;91.00;;;;;;5059686;28;20082;-80
2023/08/11 06:12:41;;;;;;;18.05;16.25;;;16.50;90.60;;;;;;5058691;28;20044;-78
2023/08/11 06:15:06;;;;;;;16.60;14.95;;;16.60;90.50;;;;;;5075267;28;20040;-79
2023/08/11 06:17:32;;;;;;;18.05;16.00;;;16.70;90.50;;;;;;5075144;28;20071;-80
2023/08/11 06:19:58;;;;;;;19.13;15.07;;;16.80;90.50;;;;;;5092224;28;20048;-79
2023/08/11 06:22:24;;;;;;;19.58;15.82;;;16.90;90.10;;;;;;5091918;28;20549;-79
2023/08/11 06:24:50;;;;;;;18.00;16.30;;;17.00;90.30;;;;;;5092259;28;20067;-78
2023/08/11 06:27:15;;;;;;;19.75;16.02;;;17.10;90.30;;;;;;5075475;28;20042;-78
2023/08/11 06:29:41;;;;;;;17.85;16.05;;;17.20;90.10;;;;;;5092014;28;20036;-80
2023/08/11 06:32:07;;;;;;;18.27;16.38;;;17.30;89.90;;;;;;5058247;28;20052;-80
2023/08/11 06:34:33;;;;;;;18.52;15.98;;;17.50;89.80;;;;;;5075017;28;20109;-78
2023/08/11 06:36:59;;;;;;;16.85;15.13;;;17.50;89.50;;;;;;5105290;28;20047;-81
2023/08/11 06:39:24;;;;;;;16.52;14.93;;;17.70;89.30;;;;;;5092804;28;20040;-79
2023/08/11 06:41:50;;;;;;;15.00;13.48;;;17.80;88.70;;;;;;5092048;28;20420;-80
2023/08/11 06:44:16;;;;;;;14.38;13.02;;;18.00;88.50;;;;;;5091892;28;20051;-80
2023/08/11 06:46:42;;;;;;;15.10;13.50;;;18.00;88.20;;;;;;5091732;28;20043;-80
2023/08/11 06:49:07;;;;;;;15.68;13.93;;;18.10;87.20;;;;;;5075084;28;20036;-79
2023/08/11 06:51:33;;;;;;;16.17;14.57;;;18.20;87.30;;;;;;5058608;28;20032;-80
2023/08/11 06:53:59;;;;;;;15.80;11.88;;;18.40;85.70;;;;;;5075215;28;20044;-78
2023/08/11 06:56:25;;;;;;;15.48;11.73;;;18.50;85.90;;;;;;5078417;28;20028;-79
2023/08/11 06:58:51;;;;;;;12.45;11.00;;;18.60;85.60;;;;;;5117938;28;20051;-78
2023/08/11 07:01:18;;;;;;;13.55;11.48;;;18.70;85.20;;;;;;5117874;28;20024;-80
2023/08/11 07:03:46;;;;;;;14.00;10.88;;;18.80;84.90;;;;;;5118118;28;20078;-78
2023/08/11 07:06:13;;;;;;;16.33;11.75;;;19.00;83.80;;;;;;5099979;28;20032;-79
2023/08/11 07:08:39;;;;;;;11.23;10.13;;;19.00;84.20;;;;;;5101284;28;20024;-79
2023/08/11 07:11:05;;;;;;;10.85;9.65;;;19.10;83.90;;;;;;5119022;28;20050;-80
2023/08/11 07:13:31;;;;;;;13.43;9.52;;;19.20;82.80;;;;;;5121783;28;20063;-80
2023/08/11 07:15:57;;;;;;;12.50;9.57;;;19.40;82.50;;;;;;5121742;28;20032;-79
2023/08/11 07:18:24;;;;;;;12.18;9.18;;;19.40;81.60;;;;;;5121273;28;20047;-80
2023/08/11 07:20:49;;;;;;;12.57;9.88;;;19.60;82.40;;;;;;5121274;28;20088;-80
2023/08/11 07:23:16;;;;;;;11.35;10.18;;;19.70;82.00;;;;;;5120154;28;20028;-79
2023/08/11 07:25:42;;;;;;;11.40;9.68;;;19.70;81.80;;;;;;5116516;28;20065;-80
2023/08/11 07:28:08;;;;;;;11.65;10.45;;;19.90;81.50;;;;;;5115570;28;20028;-80
2023/08/11 07:30:35;;;;;;;11.25;9.00;;;19.90;80.50;;;;;;5103974;28;20048;-80
2023/08/11 07:33:02;;;;;;;11.57;9.90;;;20.00;81.20;;;;;;5118086;28;20076;-82
2023/08/11 07:35:28;;;;;;;11.75;10.43;;;20.00;80.50;;;;;;5110554;28;20096;-80
2023/08/11 07:37:54;;;;;;;13.23;10.60;;;20.10;80.90;;;;;;5090667;28;20032;-81
2023/08/11 07:40:20;;;;;;;12.48;10.73;;;20.30;81.10;;;;;;5115831;28;20044;-79
2023/08/11 07:42:46;;;;;;;32.92;12.07;;;20.40;81.20;;;;;;5117555;28;20047;-80
2023/08/11 07:45:12;;;;;;;12.68;10.90;;;20.50;80.10;;;;;;5121176;28;20057;-81
2023/08/11 07:47:38;;;;;;;12.32;10.55;;;20.50;79.90;;;;;;5104131;28;20070;-81
2023/08/11 07:50:04;;;;;;;18.02;11.27;;;20.60;80.00;;;;;;5104259;28;20089;-79
2023/08/11 07:52:30;;;;;;;15.13;10.63;;;20.60;80.00;;;;;;5121137;28;20027;-79
2023/08/11 07:54:56;;;;;;;15.32;11.48;;;20.80;79.90;;;;;;5103904;28;20036;-79
2023/08/11 07:57:22;;;;;;;17.10;12.80;;;20.80;79.70;;;;;;5120920;28;20043;-78
2023/08/11 07:59:48;;;;;;;14.63;11.68;;;20.90;79.50;;;;;;5120375;28;20024;-79
2023/08/11 08:02:15;;;;;;;13.25;11.80;;;21.00;78.10;;;;;;5103132;28;20047;-78
2023/08/11 08:04:41;;;;;;;13.88;11.10;;;21.20;77.60;;;;;;5103441;28;20028;-78
2023/08/11 08:07:07;;;;;;;11.98;10.75;;;21.20;77.10;;;;;;5120346;28;20087;-81
2023/08/11 08:09:33;;;;;;;13.18;11.27;;;21.30;77.60;;;;;;5120093;28;20040;-79
2023/08/11 08:12:01;;;;;;;16.45;11.48;;;21.40;77.60;;;;;;5086703;28;20032;-79
2023/08/11 08:14:27;;;;;;;11.95;10.73;;;21.50;76.10;;;;;;5120518;28;20031;-79
2023/08/11 08:16:53;;;;;;;14.80;12.05;;;21.50;74.70;;;;;;5120210;28;20083;-78
2023/08/11 08:19:21;;;;;;;13.82;11.15;;;21.70;75.90;;;;;;5120357;28;20043;-79
2023/08/11 08:21:47;;;;;;;15.68;10.73;;;21.70;75.90;;;;;;5103133;28;20099;-79
2023/08/11 08:24:16;;;;;;;11.07;9.25;;;21.90;74.40;;;;;;5118713;28;20054;-79
2023/08/11 08:26:43;;;;;;;11.80;9.20;;;22.00;74.80;;;;;;5107908;28;20389;-79
2023/08/11 08:29:09;;;;;;;13.32;10.13;;;22.10;74.90;;;;;;5097067;28;20071;-80
2023/08/11 08:31:36;;;;;;;12.20;9.13;;;22.30;73.70;;;;;;5095525;28;20059;-79
2023/08/11 08:34:02;;;;;;;12.75;8.63;;;22.40;74.20;;;;;;5094588;28;20079;-79
2023/08/11 08:36:28;;;;;;;11.32;8.43;;;22.40;72.80;;;;;;5094110;28;20048;-80
2023/08/11 08:38:54;;;;;;;13.45;8.75;;;22.50;72.60;;;;;;5093951;28;20457;-80
2023/08/11 08:41:23;;;;;;;12.80;8.75;;;22.60;72.10;;;;;;5093742;28;20517;-80
2023/08/11 08:43:53;;;;;;;11.77;8.40;;;22.70;72.20;;;;;;5093829;28;20551;-79
2023/08/11 08:46:21;;;;;;;10.75;7.63;;;22.70;70.90;;;;;;5093689;28;20408;-80
2023/08/11 08:48:56;;;;;;;8.93;7.90;;;22.90;70.50;;;;;;5076942;28;20032;-79
2023/08/11 08:51:22;;;;;;;10.05;7.55;;;22.90;70.80;;;;;;5077166;28;20032;-81
2023/08/11 08:53:48;;;;;;;9.82;7.40;;;23.10;70.80;;;;;;5094611;28;20499;-80
2023/08/11 08:56:14;;;;;;;10.30;7.40;;;23.20;70.70;;;;;;5044120;28;20040;-80
2023/08/11 08:58:41;;;;;;;10.00;6.68;;;23.20;69.80;;;;;;5054681;28;20059;-80
2023/08/11 09:01:09;;;;;;;11.07;7.07;;;23.30;69.90;;;;;;5070694;28;20048;-81
2023/08/11 09:03:36;;;;;;;14.07;7.72;;;23.40;70.50;;;;;;5087758;28;20039;-79
2023/08/11 09:06:05;;;;;;;10.80;6.47;;;23.50;68.60;;;;;;5069726;28;20048;-80
2023/08/11 09:08:31;;;;;;;11.02;6.25;;;23.50;68.70;;;;;;5068382;28;20074;-80
2023/08/11 09:10:57;;;;;;;12.23;6.95;;;23.70;68.10;;;;;;5069812;28;20063;-79
2023/08/11 09:13:25;;;;;;;9.07;6.38;;;23.80;67.30;;;;;;5069509;28;20510;-80
2023/08/11 09:15:51;;;;;;;9.48;6.10;;;23.90;67.90;;;;;;5069214;28;20040;-80
2023/08/11 09:18:17;;;;;;;10.13;6.57;;;24.10;68.40;;;;;;5089322;28;20070;-80
2023/08/11 09:20:46;;;;;;;10.63;7.28;;;24.10;68.10;;;;;;5095711;28;20040;-80
2023/08/11 09:23:12;;;;;;;10.75;5.78;;;24.20;68.30;;;;;;5095421;28;20047;-80
2023/08/11 09:25:37;;;;;;;8.05;5.68;;;24.20;66.80;;;;;;5079260;28;20052;-81
2023/08/11 09:28:03;;;;;;;10.27;5.43;;;24.10;65.50;;;;;;5078903;28;20040;-79
2023/08/11 09:30:31;;;;;;;7.88;5.35;;;24.10;64.80;;;;;;5094915;28;20665;-79
2023/08/11 09:33:00;;;;;;;9.13;5.93;;;24.00;65.30;;;;;;5062222;28;20080;-79
2023/08/11 09:35:26;;;;;;;9.65;5.72;;;23.90;65.50;;;;;;5094962;28;20040;-79
2023/08/11 09:37:55;;;;;;;8.70;6.60;;;24.10;66.70;;;;;;5078397;28;20069;-81
2023/08/11 09:40:24;;;;;;;12.73;6.88;;;24.00;67.00;;;;;;5081111;28;20048;-80
2023/08/11 09:42:54;;;;;;;10.25;6.10;;;24.00;67.00;;;;;;5080193;28;20130;-81
2023/08/11 09:45:21;;;;;;;12.43;6.10;;;23.90;66.40;;;;;;5101312;28;20396;-80
2023/08/11 09:47:47;;;;;;;10.63;6.55;;;24.10;67.30;;;;;;5067815;28;20094;-80
2023/08/11 09:50:14;;;;;;;7.95;5.82;;;24.20;67.60;;;;;;5107614;28;20065;-78
2023/08/11 09:52:41;;;;;;;7.25;5.43;;;24.30;67.50;;;;;;5084049;28;20048;-80
2023/08/11 09:55:09;;;;;;;63.03;11.07;;;24.40;66.80;;;;;;5080068;28;20597;-81
2023/08/11 09:57:37;;;;;;;8.43;5.20;;;24.40;65.90;;;;;;5063434;28;20047;-80
2023/08/11 10:00:05;;;;;;;7.00;5.03;;;24.60;65.10;;;;;;5075228;28;20047;-79
2023/08/11 10:02:33;;;;;;;19.88;9.18;;;24.70;65.30;;;;;;5080402;28;20048;-79
2023/08/11 10:05:03;;;;;;;8.65;5.10;;;24.90;64.60;;;;;;5079898;28;20044;-81
2023/08/11 10:07:34;;;;;;;6.90;5.45;;;25.00;62.70;;;;;;5095292;28;20063;-79
2023/08/11 10:10:05;;;;;;;12.00;6.13;;;25.20;61.70;;;;;;5079146;28;20038;-80
2023/08/11 10:12:32;;;;;;;8.07;4.97;;;25.30;62.40;;;;;;5095981;28;20492;-80
2023/08/11 10:14:59;;;;;;;6.93;5.40;;;25.30;63.40;;;;;;5095425;28;20032;-80
2023/08/11 10:17:25;;;;;;;8.48;5.45;;;25.30;63.00;;;;;;5094172;28;20036;-79
2023/08/11 10:19:51;;;;;;;8.02;5.60;;;25.20;63.00;;;;;;5095496;28;20081;-78
2023/08/11 10:22:18;;;;;;;8.93;5.35;;;25.20;63.10;;;;;;5116758;28;20129;-78
2023/08/11 10:24:44;;;;;;;7.90;4.57;;;25.00;63.60;;;;;;5101187;28;20039;-79
2023/08/11 10:27:10;;;;;;;9.90;5.07;;;25.20;64.30;;;;;;5117207;28;20050;-79
2023/08/11 10:29:38;;;;;;;8.43;4.82;;;25.40;63.00;;;;;;5100215;28;20083;-80
2023/08/11 10:32:04;;;;;;;7.25;5.18;;;25.50;62.70;;;;;;5118100;28;20122;-78
2023/08/11 10:34:31;;;;;;;9.00;6.10;;;25.50;62.20;;;;;;5118175;28;20032;-78
2023/08/11 10:36:57;;;;;;;10.27;4.50;;;25.60;63.30;;;;;;5118269;28;20050;-79
2023/08/11 10:39:24;;;;;;;10.80;5.47;;;25.70;63.30;;;;;;5100678;28;20028;-78
2023/08/11 10:41:50;;;;;;;11.05;5.32;;;25.90;63.10;;;;;;5096916;28;20055;-80
2023/08/11 10:44:18;;;;;;;7.88;4.80;;;25.90;61.40;;;;;;5058799;28;20040;-80
2023/08/11 10:46:45;;;;;;;5.93;4.53;;;26.00;61.00;;;;;;5099386;28;20034;-79
2023/08/11 10:49:14;;;;;;;7.32;4.85;;;26.20;61.90;;;;;;5121502;28;20036;-77
2023/08/11 10:51:41;;;;;;;8.07;5.57;;;26.10;61.60;;;;;;5120614;28;20075;-79
2023/08/11 10:54:07;;;;;;;10.48;5.30;;;26.10;61.80;;;;;;5116272;28;20059;-79
2023/08/11 10:56:34;;;;;;;11.85;5.50;;;26.30;62.60;;;;;;5099393;28;20032;-80
2023/08/11 10:59:22;;;;;;;7.32;5.43;;;26.20;61.10;;;;;;5096372;28;20040;-78
2023/08/11 11:01:51;;;;;;;7.95;5.15;;;26.20;61.70;;;;;;5095966;28;20067;-80
2023/08/11 11:04:19;;;;;;;5.65;4.15;;;26.10;62.10;;;;;;5095979;28;20119;-80
2023/08/11 11:06:46;;;;;;;8.38;5.25;;;26.00;62.30;;;;;;5096157;28;20115;-81
2023/08/11 11:09:13;;;;;;;5.90;4.38;;;25.80;62.60;;;;;;5095926;28;20055;-80
2023/08/11 11:11:39;;;;;;;6.03;4.57;;;25.80;63.10;;;;;;5096017;28;20085;-81
2023/08/11 11:14:06;;;;;;;6.80;5.10;;;25.90;63.50;;;;;;5096009;28;20040;-78
2023/08/11 11:16:32;;;;;;;9.93;4.85;;;26.10;63.30;;;;;;5062659;28;20040;-80
2023/08/11 11:19:03;;;;;;;6.93;5.10;;;26.30;63.20;;;;;;5095645;28;20048;-79
2023/08/11 11:21:29;;;;;;;8.15;5.15;;;26.30;62.50;;;;;;5078604;28;20048;-78
2023/08/11 11:23:55;;;;;;;12.27;4.95;;;26.50;62.70;;;;;;5096604;28;20097;-82
2023/08/11 11:26:26;;;;;;;6.57;4.43;;;26.30;62.10;;;;;;5079423;28;20549;-78
2023/08/11 11:28:53;;;;;;;7.65;4.90;;;26.40;62.50;;;;;;5096346;28;20040;-79
2023/08/11 11:31:21;;;;;;;5.55;4.28;;;26.50;62.10;;;;;;5078271;28;20050;-79
2023/08/11 11:33:51;;;;;;;7.88;4.60;;;26.50;61.80;;;;;;5078626;28;20040;-80
2023/08/11 11:36:18;;;;;;;7.45;4.50;;;26.70;61.10;;;;;;5095373;28;20482;-79
2023/08/11 11:38:45;;;;;;;7.00;4.63;;;26.80;60.40;;;;;;5078272;28;20068;-78
2023/08/11 11:41:17;;;;;;;6.10;4.72;;;27.00;60.80;;;;;;5095214;28;20400;-79
2023/08/11 11:43:45;;;;;;;7.45;4.72;;;27.10;60.70;;;;;;5095152;28;20464;-79
2023/08/11 11:46:14;;;;;;;5.35;4.43;;;26.90;60.60;;;;;;5077968;28;20044;-79
2023/08/11 11:48:43;;;;;;;7.18;5.28;;;26.90;61.60;;;;;;5062200;28;20040;-79
2023/08/11 11:51:11;;;;;;;9.07;5.03;;;26.80;60.70;;;;;;5078183;28;20071;-80
2023/08/11 11:53:38;;;;;;;7.47;5.25;;;26.70;61.70;;;;;;5078399;28;20370;-79
2023/08/11 11:56:04;;;;;;;6.18;4.70;;;26.40;62.00;;;;;;5094788;28;20044;-80
2023/08/11 11:58:33;;;;;;;8.48;4.78;;;26.40;62.70;;;;;;5093633;28;20082;-79
2023/08/11 12:01:18;;;;;;;5.90;4.63;;;26.40;63.20;;;;;;5077638;28;20036;-78
2023/08/11 12:03:48;;;;;;;9.65;5.15;;;26.20;63.10;;;;;;5077586;28;20047;-78
2023/08/11 12:06:17;;;;;;;7.07;4.88;;;26.10;63.30;;;;;;5094601;28;20514;-79
2023/08/11 12:08:44;;;;;;;7.75;4.78;;;26.10;63.90;;;;;;5094345;28;20482;-81
2023/08/11 12:11:11;;;;;;;8.50;4.60;;;26.40;63.80;;;;;;5057452;28;20476;-80
2023/08/11 12:13:42;;;;;;;5.90;4.40;;;26.70;64.10;;;;;;5085222;28;20496;-80
2023/08/11 12:16:10;;;;;;;5.93;4.07;;;26.80;61.90;;;;;;5078714;28;20725;-81
2023/08/11 12:18:37;;;;;;;6.93;4.78;;;26.90;62.20;;;;;;5048511;28;20508;-79
2023/08/11 12:21:04;;;;;;;5.22;3.00;;;27.10;61.10;;;;;;5082622;28;20043;-79
2023/08/11 12:23:30;;;;;;;4.18;3.75;;;27.20;59.60;;;;;;5086654;28;20055;-80
2023/08/11 12:25:56;;;;;;;5.75;4.38;;;27.20;60.10;;;;;;5086291;28;20052;-79
2023/08/11 12:28:22;;;;;;;10.13;4.50;;;27.00;60.20;;;;;;5068667;28;20089;-80
2023/08/11 12:30:49;;;;;;;6.68;4.43;;;26.90;61.00;;;;;;5052645;28;20083;-80